sensor_id;sensor_type;location;lat;lon;timestamp;temperature;humidity
46438;DHT22;32137;48.728;9.142;2023-11-21T00:00:51;8.80;99.90
46438;DHT22;32137;48.728;9.142;2023-11-21T00:03:16;9.00;99.90
46438;DHT22;32137;48.728;9.142;2023-11-21T00:05:42;8.90;99.90
46438;DHT22;32137;48.728;9.142;2023-11-21T00:08:08;8.80;99.90
46438;DHT22;32137;48.728;9.142;2023-11-21T00:10:34;8.90;99.90
46438;DHT22;32137;48.728;9.142;2023-11-21T00:13:00;9.00;99.90
46438;DHT22;32137;48.728;9.142;2023-11-21T00:15:27;8.80;99.90
46438;DHT22;32137;48.728;9.142;2023-11-21T00:17:52;9.10;99.90
46438;DHT22;32137;48.728;9.142;2023-11-21T00:20:18;9.10;99.90
46438;DHT22;32137;48.728;9.142;2023-11-21T00:22:43;8.80;99.90
46438;DHT22;32137;48.728;9.142;2023-11-21T00:25:09;8.80;99.90
46438;DHT22;32137;48.728;9.142;2023-11-21T00:27:35;8.70;99.90
46438;DHT22;32137;48.728;9.142;2023-11-21T00:30:00;9.10;99.90
46438;DHT22;32137;48.728;9.142;2023-11-21T00:32:26;8.90;99.90
46438;DHT22;32137;48.728;9.142;2023-11-21T00:34:51;9.00;99.90
46438;DHT22;32137;48.728;9.142;2023-11-21T00:37:17;9.00;99.90
46438;DHT22;32137;48.728;9.142;2023-11-21T00:39:42;9.10;99.90
46438;DHT22;32137;48.728;9.142;2023-11-21T00:42:07;9.00;99.90
46438;DHT22;32137;48.728;9.142;2023-11-21T00:44:33;8.70;99.90
46438;DHT22;32137;48.728;9.142;2023-11-21T00:46:59;8.60;99.90
46438;DHT22;32137;48.728;9.142;2023-11-21T00:49:25;9.00;99.90
46438;DHT22;32137;48.728;9.142;2023-11-21T00:51:50;8.70;99.90
46438;DHT22;32137;48.728;9.142;2023-11-21T00:54:15;8.60;99.90
46438;DHT22;32137;48.728;9.142;2023-11-21T00:56:42;8.80;99.90
46438;DHT22;32137;48.728;9.142;2023-11-21T00:59:08;8.50;99.90
46438;DHT22;32137;48.728;9.142;2023-11-21T01:01:33;8.90;99.90
46438;DHT22;32137;48.728;9.142;2023-11-21T01:03:59;8.50;99.90
46438;DHT22;32137;48.728;9.142;2023-11-21T01:06:24;8.90;99.90
46438;DHT22;32137;48.728;9.142;2023-11-21T01:08:49;8.50;99.90
46438;DHT22;32137;48.728;9.142;2023-11-21T01:11:15;8.50;99.90
46438;DHT22;32137;48.728;9.142;2023-11-21T01:13:41;8.80;99.90
46438;DHT22;32137;48.728;9.142;2023-11-21T01:16:07;8.80;99.90
46438;DHT22;32137;48.728;9.142;2023-11-21T01:18:32;8.50;99.90
46438;DHT22;32137;48.728;9.142;2023-11-21T01:20:58;8.70;99.90
46438;DHT22;32137;48.728;9.142;2023-11-21T01:23:26;8.60;99.90
46438;DHT22;32137;48.728;9.142;2023-11-21T01:25:52;8.90;99.90
46438;DHT22;32137;48.728;9.142;2023-11-21T01:28:17;8.90;99.90
46438;DHT22;32137;48.728;9.142;2023-11-21T01:30:43;8.60;99.90
46438;DHT22;32137;48.728;9.142;2023-11-21T01:33:09;8.70;99.90
46438;DHT22;32137;48.728;9.142;2023-11-21T01:35:35;8.90;99.90
46438;DHT22;32137;48.728;9.142;2023-11-21T01:38:01;8.60;99.90
46438;DHT22;32137;48.728;9.142;2023-11-21T01:40:26;8.50;99.90
46438;DHT22;32137;48.728;9.142;2023-11-21T01:42:53;8.80;99.90
46438;DHT22;32137;48.728;9.142;2023-11-21T01:45:18;8.70;99.90
46438;DHT22;32137;48.728;9.142;2023-11-21T01:47:44;8.70;99.90
46438;DHT22;32137;48.728;9.142;2023-11-21T01:50:10;8.90;99.90
46438;DHT22;32137;48.728;9.142;2023-11-21T01:52:38;8.70;99.90
46438;DHT22;32137;48.728;9.142;2023-11-21T01:55:04;8.80;99.90
46438;DHT22;32137;48.728;9.142;2023-11-21T01:57:31;8.60;99.90
46438;DHT22;32137;48.728;9.142;2023-11-21T01:59:57;8.60;99.90
46438;DHT22;32137;48.728;9.142;2023-11-21T02:02:24;8.90;99.90
46438;DHT22;32137;48.728;9.142;2023-11-21T02:04:49;8.70;99.90
46438;DHT22;32137;48.728;9.142;2023-11-21T02:07:15;8.90;99.90
46438;DHT22;32137;48.728;9.142;2023-11-21T02:09:40;8.60;99.90
46438;DHT22;32137;48.728;9.142;2023-11-21T02:12:07;8.50;99.90
46438;DHT22;32137;48.728;9.142;2023-11-21T02:14:34;8.90;99.90
46438;DHT22;32137;48.728;9.142;2023-11-21T02:16:59;8.60;99.90
46438;DHT22;32137;48.728;9.142;2023-11-21T02:19:26;8.90;99.90
46438;DHT22;32137;48.728;9.142;2023-11-21T02:21:52;8.50;99.90
46438;DHT22;32137;48.728;9.142;2023-11-21T02:24:19;8.80;99.90
46438;DHT22;32137;48.728;9.142;2023-11-21T02:26:44;8.80;99.90
46438;DHT22;32137;48.728;9.142;2023-11-21T02:29:11;8.60;99.90
46438;DHT22;32137;48.728;9.142;2023-11-21T02:31:38;8.80;99.90
46438;DHT22;32137;48.728;9.142;2023-11-21T02:34:13;8.70;99.90
46438;DHT22;32137;48.728;9.142;2023-11-21T02:36:39;8.70;99.90
46438;DHT22;32137;48.728;9.142;2023-11-21T02:39:05;8.70;99.90
46438;DHT22;32137;48.728;9.142;2023-11-21T02:41:31;8.70;99.90
46438;DHT22;32137;48.728;9.142;2023-11-21T02:43:57;8.40;99.90
46438;DHT22;32137;48.728;9.142;2023-11-21T02:46:22;8.30;99.90
46438;DHT22;32137;48.728;9.142;2023-11-21T02:48:48;8.60;99.90
46438;DHT22;32137;48.728;9.142;2023-11-21T02:51:13;8.30;99.90
46438;DHT22;32137;48.728;9.142;2023-11-21T02:53:41;8.60;99.90
46438;DHT22;32137;48.728;9.142;2023-11-21T02:56:06;8.30;99.90
46438;DHT22;32137;48.728;9.142;2023-11-21T02:58:32;8.40;99.90
46438;DHT22;32137;48.728;9.142;2023-11-21T03:00:58;8.30;99.90
46438;DHT22;32137;48.728;9.142;2023-11-21T03:03:23;8.70;99.90
46438;DHT22;32137;48.728;9.142;2023-11-21T03:05:49;8.30;99.90
46438;DHT22;32137;48.728;9.142;2023-11-21T03:08:15;8.60;99.90
46438;DHT22;32137;48.728;9.142;2023-11-21T03:10:40;8.40;99.90
46438;DHT22;32137;48.728;9.142;2023-11-21T03:13:06;8.40;99.90
46438;DHT22;32137;48.728;9.142;2023-11-21T03:15:31;8.30;99.90
46438;DHT22;32137;48.728;9.142;2023-11-21T03:17:58;8.60;99.90
46438;DHT22;32137;48.728;9.142;2023-11-21T03:20:23;8.30;99.90
46438;DHT22;32137;48.728;9.142;2023-11-21T03:22:49;8.60;99.90
46438;DHT22;32137;48.728;9.142;2023-11-21T03:25:14;8.30;99.90
46438;DHT22;32137;48.728;9.142;2023-11-21T03:27:41;8.20;99.90
46438;DHT22;32137;48.728;9.142;2023-11-21T03:30:07;8.60;99.90
46438;DHT22;32137;48.728;9.142;2023-11-21T03:32:33;8.30;99.90
46438;DHT22;32137;48.728;9.142;2023-11-21T03:34:59;8.50;99.90
46438;DHT22;32137;48.728;9.142;2023-11-21T03:37:25;8.30;99.90
46438;DHT22;32137;48.728;9.142;2023-11-21T03:39:52;8.60;99.90
46438;DHT22;32137;48.728;9.142;2023-11-21T03:42:18;8.50;99.90
46438;DHT22;32137;48.728;9.142;2023-11-21T03:44:43;8.60;99.90
46438;DHT22;32137;48.728;9.142;2023-11-21T03:47:09;8.50;99.90
46438;DHT22;32137;48.728;9.142;2023-11-21T03:49:35;8.60;99.90
46438;DHT22;32137;48.728;9.142;2023-11-21T03:52:00;8.50;99.90
46438;DHT22;32137;48.728;9.142;2023-11-21T03:54:25;8.40;99.90
46438;DHT22;32137;48.728;9.142;2023-11-21T03:56:51;8.60;99.90
46438;DHT22;32137;48.728;9.142;2023-11-21T03:59:17;8.40;99.90
46438;DHT22;32137;48.728;9.142;2023-11-21T04:01:42;8.40;99.90
46438;DHT22;32137;48.728;9.142;2023-11-21T04:04:08;8.50;99.90
46438;DHT22;32137;48.728;9.142;2023-11-21T04:06:33;8.30;99.90
46438;DHT22;32137;48.728;9.142;2023-11-21T04:08:59;8.60;99.90
46438;DHT22;32137;48.728;9.142;2023-11-21T04:11:24;8.70;99.90
46438;DHT22;32137;48.728;9.142;2023-11-21T04:13:50;8.30;99.90
46438;DHT22;32137;48.728;9.142;2023-11-21T04:16:15;8.30;99.90
46438;DHT22;32137;48.728;9.142;2023-11-21T04:18:40;8.60;99.90
46438;DHT22;32137;48.728;9.142;2023-11-21T04:21:06;8.30;99.90
46438;DHT22;32137;48.728;9.142;2023-11-21T04:23:33;8.20;99.90
46438;DHT22;32137;48.728;9.142;2023-11-21T04:25:58;8.40;99.90
46438;DHT22;32137;48.728;9.142;2023-11-21T04:28:24;8.50;99.90
46438;DHT22;32137;48.728;9.142;2023-11-21T04:30:50;8.20;99.90
46438;DHT22;32137;48.728;9.142;2023-11-21T04:33:15;8.30;99.90
46438;DHT22;32137;48.728;9.142;2023-11-21T04:35:41;8.30;99.90
46438;DHT22;32137;48.728;9.142;2023-11-21T04:38:07;8.20;99.90
46438;DHT22;32137;48.728;9.142;2023-11-21T04:40:32;8.30;99.90
46438;DHT22;32137;48.728;9.142;2023-11-21T04:42:58;8.30;99.90
46438;DHT22;32137;48.728;9.142;2023-11-21T04:45:23;8.30;99.90
46438;DHT22;32137;48.728;9.142;2023-11-21T04:47:48;8.30;99.90
46438;DHT22;32137;48.728;9.142;2023-11-21T04:50:14;8.20;99.90
46438;DHT22;32137;48.728;9.142;2023-11-21T04:52:39;8.40;99.90
46438;DHT22;32137;48.728;9.142;2023-11-21T04:55:05;8.70;99.90
46438;DHT22;32137;48.728;9.142;2023-11-21T04:57:31;8.60;99.90
46438;DHT22;32137;48.728;9.142;2023-11-21T04:59:57;8.50;99.90
46438;DHT22;32137;48.728;9.142;2023-11-21T05:02:22;8.60;99.90
46438;DHT22;32137;48.728;9.142;2023-11-21T05:04:48;8.60;99.90
46438;DHT22;32137;48.728;9.142;2023-11-21T05:07:13;8.40;99.90
46438;DHT22;32137;48.728;9.142;2023-11-21T05:09:42;8.30;99.90
46438;DHT22;32137;48.728;9.142;2023-11-21T05:12:09;8.30;99.90
46438;DHT22;32137;48.728;9.142;2023-11-21T05:14:35;8.50;99.90
46438;DHT22;32137;48.728;9.142;2023-11-21T05:17:00;8.20;99.90
46438;DHT22;32137;48.728;9.142;2023-11-21T05:19:26;8.40;99.90
46438;DHT22;32137;48.728;9.142;2023-11-21T05:21:52;8.10;99.90
46438;DHT22;32137;48.728;9.142;2023-11-21T05:24:17;8.10;99.90
46438;DHT22;32137;48.728;9.142;2023-11-21T05:26:43;8.10;99.90
46438;DHT22;32137;48.728;9.142;2023-11-21T05:29:08;8.10;99.90
46438;DHT22;32137;48.728;9.142;2023-11-21T05:31:36;8.40;99.90
46438;DHT22;32137;48.728;9.142;2023-11-21T05:34:03;8.40;99.90
46438;DHT22;32137;48.728;9.142;2023-11-21T05:36:28;8.10;99.90
46438;DHT22;32137;48.728;9.142;2023-11-21T05:38:54;8.40;99.90
46438;DHT22;32137;48.728;9.142;2023-11-21T05:41:19;8.30;99.90
46438;DHT22;32137;48.728;9.142;2023-11-21T05:43:45;8.10;99.90
46438;DHT22;32137;48.728;9.142;2023-11-21T05:46:10;8.10;99.90
46438;DHT22;32137;48.728;9.142;2023-11-21T05:48:36;8.40;99.90
46438;DHT22;32137;48.728;9.142;2023-11-21T05:51:04;8.40;99.90
46438;DHT22;32137;48.728;9.142;2023-11-21T05:53:29;8.00;99.90
46438;DHT22;32137;48.728;9.142;2023-11-21T05:55:55;8.30;99.90
46438;DHT22;32137;48.728;9.142;2023-11-21T05:58:21;8.30;99.90
46438;DHT22;32137;48.728;9.142;2023-11-21T06:00:46;7.90;99.90
46438;DHT22;32137;48.728;9.142;2023-11-21T06:03:12;8.20;99.90
46438;DHT22;32137;48.728;9.142;2023-11-21T06:05:37;8.30;99.90
46438;DHT22;32137;48.728;9.142;2023-11-21T06:08:03;8.30;99.90
46438;DHT22;32137;48.728;9.142;2023-11-21T06:10:29;8.10;99.90
46438;DHT22;32137;48.728;9.142;2023-11-21T06:12:54;8.10;99.90
46438;DHT22;32137;48.728;9.142;2023-11-21T06:15:20;8.30;99.90
46438;DHT22;32137;48.728;9.142;2023-11-21T06:17:47;8.10;99.90
46438;DHT22;32137;48.728;9.142;2023-11-21T06:20:17;8.00;99.90
46438;DHT22;32137;48.728;9.142;2023-11-21T06:22:44;8.30;99.90
46438;DHT22;32137;48.728;9.142;2023-11-21T06:25:10;8.10;99.90
46438;DHT22;32137;48.728;9.142;2023-11-21T06:27:37;8.00;99.90
46438;DHT22;32137;48.728;9.142;2023-11-21T06:30:03;8.10;99.90
46438;DHT22;32137;48.728;9.142;2023-11-21T06:32:29;8.30;99.90
46438;DHT22;32137;48.728;9.142;2023-11-21T06:34:57;8.20;99.90
46438;DHT22;32137;48.728;9.142;2023-11-21T06:37:29;8.30;99.90
46438;DHT22;32137;48.728;9.142;2023-11-21T06:39:54;8.10;99.90
46438;DHT22;32137;48.728;9.142;2023-11-21T06:42:22;8.10;99.90
46438;DHT22;32137;48.728;9.142;2023-11-21T06:44:47;8.20;99.90
46438;DHT22;32137;48.728;9.142;2023-11-21T06:47:22;8.30;99.90
46438;DHT22;32137;48.728;9.142;2023-11-21T06:49:50;8.40;99.90
46438;DHT22;32137;48.728;9.142;2023-11-21T06:52:15;8.40;99.90
46438;DHT22;32137;48.728;9.142;2023-11-21T06:54:41;8.20;99.90
46438;DHT22;32137;48.728;9.142;2023-11-21T06:57:06;8.20;99.90
46438;DHT22;32137;48.728;9.142;2023-11-21T06:59:33;8.50;99.90
46438;DHT22;32137;48.728;9.142;2023-11-21T07:01:58;8.20;99.90
46438;DHT22;32137;48.728;9.142;2023-11-21T07:04:24;8.20;99.90
46438;DHT22;32137;48.728;9.142;2023-11-21T07:06:51;8.60;99.90
46438;DHT22;32137;48.728;9.142;2023-11-21T07:09:17;8.30;99.90
46438;DHT22;32137;48.728;9.142;2023-11-21T07:11:42;8.30;99.90
46438;DHT22;32137;48.728;9.142;2023-11-21T07:14:07;8.60;99.90
46438;DHT22;32137;48.728;9.142;2023-11-21T07:16:34;8.30;99.90
46438;DHT22;32137;48.728;9.142;2023-11-21T07:19:03;8.30;99.90
46438;DHT22;32137;48.728;9.142;2023-11-21T07:21:34;8.60;99.90
46438;DHT22;32137;48.728;9.142;2023-11-21T07:24:01;8.30;99.90
46438;DHT22;32137;48.728;9.142;2023-11-21T07:26:27;8.60;99.90
46438;DHT22;32137;48.728;9.142;2023-11-21T07:28:53;8.60;99.90
46438;DHT22;32137;48.728;9.142;2023-11-21T07:31:18;8.60;99.90
46438;DHT22;32137;48.728;9.142;2023-11-21T07:33:45;8.30;99.90
46438;DHT22;32137;48.728;9.142;2023-11-21T07:36:12;8.50;99.90
46438;DHT22;32137;48.728;9.142;2023-11-21T07:38:38;8.30;99.90
46438;DHT22;32137;48.728;9.142;2023-11-21T07:41:04;8.60;99.90
46438;DHT22;32137;48.728;9.142;2023-11-21T07:43:30;8.30;99.90
46438;DHT22;32137;48.728;9.142;2023-11-21T07:46:03;8.60;99.90
46438;DHT22;32137;48.728;9.142;2023-11-21T07:48:29;8.80;99.90
46438;DHT22;32137;48.728;9.142;2023-11-21T07:50:55;8.40;99.90
46438;DHT22;32137;48.728;9.142;2023-11-21T07:53:20;8.70;99.90
46438;DHT22;32137;48.728;9.142;2023-11-21T07:55:47;8.80;99.90
46438;DHT22;32137;48.728;9.142;2023-11-21T07:58:12;8.60;99.90
46438;DHT22;32137;48.728;9.142;2023-11-21T08:00:38;8.50;99.90
46438;DHT22;32137;48.728;9.142;2023-11-21T08:03:04;8.40;99.90
46438;DHT22;32137;48.728;9.142;2023-11-21T08:05:31;8.80;99.90
46438;DHT22;32137;48.728;9.142;2023-11-21T08:07:56;8.60;99.90
46438;DHT22;32137;48.728;9.142;2023-11-21T08:10:22;8.50;99.90
46438;DHT22;32137;48.728;9.142;2023-11-21T08:12:47;8.80;99.90
46438;DHT22;32137;48.728;9.142;2023-11-21T08:15:13;8.60;99.90
46438;DHT22;32137;48.728;9.142;2023-11-21T08:17:39;8.60;99.90
46438;DHT22;32137;48.728;9.142;2023-11-21T08:20:05;8.80;99.90
46438;DHT22;32137;48.728;9.142;2023-11-21T08:22:31;9.00;99.90
46438;DHT22;32137;48.728;9.142;2023-11-21T08:24:59;8.70;99.90
46438;DHT22;32137;48.728;9.142;2023-11-21T08:27:25;8.80;99.90
46438;DHT22;32137;48.728;9.142;2023-11-21T08:29:50;9.10;99.90
46438;DHT22;32137;48.728;9.142;2023-11-21T08:32:17;8.70;99.90
46438;DHT22;32137;48.728;9.142;2023-11-21T08:34:43;9.10;99.90
46438;DHT22;32137;48.728;9.142;2023-11-21T08:37:10;8.70;99.90
46438;DHT22;32137;48.728;9.142;2023-11-21T08:39:36;8.90;99.90
46438;DHT22;32137;48.728;9.142;2023-11-21T08:42:02;9.10;99.90
46438;DHT22;32137;48.728;9.142;2023-11-21T08:44:28;8.80;99.90
46438;DHT22;32137;48.728;9.142;2023-11-21T08:46:53;9.10;99.90
46438;DHT22;32137;48.728;9.142;2023-11-21T08:49:19;9.20;99.90
46438;DHT22;32137;48.728;9.142;2023-11-21T08:51:44;9.00;99.90
46438;DHT22;32137;48.728;9.142;2023-11-21T08:54:10;9.00;99.90
46438;DHT22;32137;48.728;9.142;2023-11-21T08:56:37;9.00;99.90
46438;DHT22;32137;48.728;9.142;2023-11-21T08:59:02;9.30;99.90
46438;DHT22;32137;48.728;9.142;2023-11-21T09:01:31;9.40;99.90
46438;DHT22;32137;48.728;9.142;2023-11-21T09:03:57;9.40;99.90
46438;DHT22;32137;48.728;9.142;2023-11-21T09:06:23;9.30;99.90
46438;DHT22;32137;48.728;9.142;2023-11-21T09:08:48;9.50;99.90
46438;DHT22;32137;48.728;9.142;2023-11-21T09:11:13;9.70;99.90
46438;DHT22;32137;48.728;9.142;2023-11-21T09:13:39;9.80;99.90
46438;DHT22;32137;48.728;9.142;2023-11-21T09:16:04;9.40;99.90
46438;DHT22;32137;48.728;9.142;2023-11-21T09:18:31;9.80;99.90
46438;DHT22;32137;48.728;9.142;2023-11-21T09:20:56;9.80;99.90
46438;DHT22;32137;48.728;9.142;2023-11-21T09:23:22;9.60;99.90
46438;DHT22;32137;48.728;9.142;2023-11-21T09:25:47;9.60;99.90
46438;DHT22;32137;48.728;9.142;2023-11-21T09:28:15;9.70;99.90
46438;DHT22;32137;48.728;9.142;2023-11-21T09:30:40;9.60;99.90
46438;DHT22;32137;48.728;9.142;2023-11-21T09:33:06;9.60;99.90
46438;DHT22;32137;48.728;9.142;2023-11-21T09:35:32;10.00;99.90
46438;DHT22;32137;48.728;9.142;2023-11-21T09:37:57;10.00;99.90
46438;DHT22;32137;48.728;9.142;2023-11-21T09:40:23;9.90;99.90
46438;DHT22;32137;48.728;9.142;2023-11-21T09:42:55;9.90;99.90
46438;DHT22;32137;48.728;9.142;2023-11-21T09:45:25;10.00;99.90
46438;DHT22;32137;48.728;9.142;2023-11-21T09:47:52;9.80;99.90
46438;DHT22;32137;48.728;9.142;2023-11-21T09:50:17;9.90;99.90
46438;DHT22;32137;48.728;9.142;2023-11-21T09:52:49;9.80;99.90
46438;DHT22;32137;48.728;9.142;2023-11-21T09:55:17;9.80;99.90
46438;DHT22;32137;48.728;9.142;2023-11-21T09:57:44;9.80;99.90
46438;DHT22;32137;48.728;9.142;2023-11-21T10:00:10;9.60;99.90
46438;DHT22;32137;48.728;9.142;2023-11-21T10:02:37;9.70;99.90
46438;DHT22;32137;48.728;9.142;2023-11-21T10:05:03;9.60;99.90
46438;DHT22;32137;48.728;9.142;2023-11-21T10:07:29;9.60;99.90
46438;DHT22;32137;48.728;9.142;2023-11-21T10:09:56;9.70;99.90
46438;DHT22;32137;48.728;9.142;2023-11-21T10:12:23;9.80;99.90
46438;DHT22;32137;48.728;9.142;2023-11-21T10:14:49;9.60;99.90
46438;DHT22;32137;48.728;9.142;2023-11-21T10:17:15;9.50;99.90
46438;DHT22;32137;48.728;9.142;2023-11-21T10:19:44;9.40;99.90
46438;DHT22;32137;48.728;9.142;2023-11-21T10:22:11;9.90;99.90
46438;DHT22;32137;48.728;9.142;2023-11-21T10:24:37;9.80;99.90
46438;DHT22;32137;48.728;9.142;2023-11-21T10:27:04;10.00;99.90
46438;DHT22;32137;48.728;9.142;2023-11-21T10:29:29;9.90;99.90
46438;DHT22;32137;48.728;9.142;2023-11-21T10:31:55;9.90;99.90
46438;DHT22;32137;48.728;9.142;2023-11-21T10:34:23;9.50;99.90
46438;DHT22;32137;48.728;9.142;2023-11-21T10:36:49;9.50;99.90
46438;DHT22;32137;48.728;9.142;2023-11-21T10:39:18;9.80;99.90
46438;DHT22;32137;48.728;9.142;2023-11-21T10:41:47;9.80;99.90
46438;DHT22;32137;48.728;9.142;2023-11-21T10:44:16;9.50;99.90
46438;DHT22;32137;48.728;9.142;2023-11-21T10:46:52;9.60;99.90
46438;DHT22;32137;48.728;9.142;2023-11-21T10:49:22;9.70;99.90
46438;DHT22;32137;48.728;9.142;2023-11-21T10:51:50;9.60;99.90
46438;DHT22;32137;48.728;9.142;2023-11-21T10:54:18;9.80;99.90
46438;DHT22;32137;48.728;9.142;2023-11-21T10:56:44;9.50;99.90
46438;DHT22;32137;48.728;9.142;2023-11-21T10:59:10;9.40;99.90
46438;DHT22;32137;48.728;9.142;2023-11-21T11:01:48;9.50;99.90
46438;DHT22;32137;48.728;9.142;2023-11-21T11:04:15;9.90;99.90
46438;DHT22;32137;48.728;9.142;2023-11-21T11:06:53;10.00;99.90
46438;DHT22;32137;48.728;9.142;2023-11-21T11:09:19;9.50;99.90
46438;DHT22;32137;48.728;9.142;2023-11-21T11:11:46;9.90;99.90
46438;DHT22;32137;48.728;9.142;2023-11-21T11:14:12;10.00;99.90
46438;DHT22;32137;48.728;9.142;2023-11-21T11:16:38;10.00;99.90
46438;DHT22;32137;48.728;9.142;2023-11-21T11:19:09;9.70;99.90
46438;DHT22;32137;48.728;9.142;2023-11-21T11:21:43;9.70;99.90
46438;DHT22;32137;48.728;9.142;2023-11-21T11:24:13;10.10;99.90
46438;DHT22;32137;48.728;9.142;2023-11-21T11:29:14;9.80;99.90
46438;DHT22;32137;48.728;9.142;2023-11-21T11:34:30;9.80;99.90
46438;DHT22;32137;48.728;9.142;2023-11-21T11:37:00;10.20;99.90
46438;DHT22;32137;48.728;9.142;2023-11-21T11:41:53;9.80;99.90
46438;DHT22;32137;48.728;9.142;2023-11-21T11:44:45;10.20;99.90
46438;DHT22;32137;48.728;9.142;2023-11-21T11:47:21;9.90;99.90
46438;DHT22;32137;48.728;9.142;2023-11-21T11:52:50;10.20;99.90
46438;DHT22;32137;48.728;9.142;2023-11-21T11:55:19;10.00;99.90
46438;DHT22;32137;48.728;9.142;2023-11-21T11:57:45;10.40;99.90
46438;DHT22;32137;48.728;9.142;2023-11-21T12:02:41;10.50;99.90
46438;DHT22;32137;48.728;9.142;2023-11-21T12:05:08;10.30;99.90
46438;DHT22;32137;48.728;9.142;2023-11-21T12:08:08;10.50;99.90
46438;DHT22;32137;48.728;9.142;2023-11-21T12:10:30;10.70;99.90
46438;DHT22;32137;48.728;9.142;2023-11-21T12:13:08;10.40;99.90
46438;DHT22;32137;48.728;9.142;2023-11-21T12:15:35;10.60;99.90
46438;DHT22;32137;48.728;9.142;2023-11-21T12:18:01;10.80;99.90
46438;DHT22;32137;48.728;9.142;2023-11-21T12:20:27;10.90;99.90
46438;DHT22;32137;48.728;9.142;2023-11-21T12:22:53;10.50;99.90
46438;DHT22;32137;48.728;9.142;2023-11-21T12:25:19;11.00;99.90
46438;DHT22;32137;48.728;9.142;2023-11-21T12:27:45;11.10;99.90
46438;DHT22;32137;48.728;9.142;2023-11-21T12:30:11;11.00;99.90
46438;DHT22;32137;48.728;9.142;2023-11-21T12:32:41;11.10;99.90
46438;DHT22;32137;48.728;9.142;2023-11-21T12:35:07;10.90;99.90
46438;DHT22;32137;48.728;9.142;2023-11-21T12:37:33;11.10;99.90
46438;DHT22;32137;48.728;9.142;2023-11-21T12:39:59;10.90;99.90
46438;DHT22;32137;48.728;9.142;2023-11-21T12:42:24;11.20;99.90
46438;DHT22;32137;48.728;9.142;2023-11-21T12:45:07;10.90;99.90
46438;DHT22;32137;48.728;9.142;2023-11-21T12:47:34;11.20;99.90
46438;DHT22;32137;48.728;9.142;2023-11-21T12:50:01;11.20;99.90
46438;DHT22;32137;48.728;9.142;2023-11-21T12:52:27;10.80;99.90
46438;DHT22;32137;48.728;9.142;2023-11-21T12:54:53;10.80;99.90
46438;DHT22;32137;48.728;9.142;2023-11-21T12:57:19;11.00;99.90
46438;DHT22;32137;48.728;9.142;2023-11-21T12:59:45;11.00;99.90
46438;DHT22;32137;48.728;9.142;2023-11-21T13:02:12;10.70;99.90
46438;DHT22;32137;48.728;9.142;2023-11-21T13:04:39;11.00;99.90
46438;DHT22;32137;48.728;9.142;2023-11-21T13:07:05;11.10;99.90
46438;DHT22;32137;48.728;9.142;2023-11-21T13:09:39;10.70;99.90
46438;DHT22;32137;48.728;9.142;2023-11-21T13:12:06;10.90;99.90
46438;DHT22;32137;48.728;9.142;2023-11-21T13:14:34;10.60;99.90
46438;DHT22;32137;48.728;9.142;2023-11-21T13:16:59;10.70;99.90
46438;DHT22;32137;48.728;9.142;2023-11-21T13:19:25;10.60;99.90
46438;DHT22;32137;48.728;9.142;2023-11-21T13:21:52;10.30;99.90
46438;DHT22;32137;48.728;9.142;2023-11-21T13:24:18;10.40;99.90
46438;DHT22;32137;48.728;9.142;2023-11-21T13:26:44;10.50;99.90
46438;DHT22;32137;48.728;9.142;2023-11-21T13:29:12;11.10;99.90
46438;DHT22;32137;48.728;9.142;2023-11-21T13:31:38;10.90;99.90
46438;DHT22;32137;48.728;9.142;2023-11-21T13:34:04;10.80;99.90
46438;DHT22;32137;48.728;9.142;2023-11-21T13:36:30;11.10;99.90
46438;DHT22;32137;48.728;9.142;2023-11-21T13:38:58;10.80;99.90
46438;DHT22;32137;48.728;9.142;2023-11-21T13:41:24;10.70;99.90
46438;DHT22;32137;48.728;9.142;2023-11-21T13:43:55;10.80;99.90
46438;DHT22;32137;48.728;9.142;2023-11-21T13:46:31;10.50;99.90
46438;DHT22;32137;48.728;9.142;2023-11-21T13:49:02;10.70;99.90
46438;DHT22;32137;48.728;9.142;2023-11-21T13:51:28;10.80;99.90
46438;DHT22;32137;48.728;9.142;2023-11-21T13:54:04;10.50;99.90
46438;DHT22;32137;48.728;9.142;2023-11-21T13:56:34;10.90;99.90
46438;DHT22;32137;48.728;9.142;2023-11-21T13:59:00;10.70;99.90
46438;DHT22;32137;48.728;9.142;2023-11-21T14:01:34;10.50;99.90
46438;DHT22;32137;48.728;9.142;2023-11-21T14:04:19;10.80;99.90
46438;DHT22;32137;48.728;9.142;2023-11-21T14:06:56;10.90;99.90
46438;DHT22;32137;48.728;9.142;2023-11-21T14:09:22;10.70;99.90
46438;DHT22;32137;48.728;9.142;2023-11-21T14:11:54;10.80;99.90
46438;DHT22;32137;48.728;9.142;2023-11-21T14:14:22;10.50;99.90
46438;DHT22;32137;48.728;9.142;2023-11-21T14:16:47;10.70;99.90
46438;DHT22;32137;48.728;9.142;2023-11-21T14:19:13;10.60;99.90
46438;DHT22;32137;48.728;9.142;2023-11-21T14:21:45;10.60;99.90
46438;DHT22;32137;48.728;9.142;2023-11-21T14:24:11;10.50;99.90
46438;DHT22;32137;48.728;9.142;2023-11-21T14:26:41;10.80;99.90
46438;DHT22;32137;48.728;9.142;2023-11-21T14:29:07;10.90;99.90
46438;DHT22;32137;48.728;9.142;2023-11-21T14:31:33;10.50;99.90
46438;DHT22;32137;48.728;9.142;2023-11-21T14:33:59;10.70;99.90
46438;DHT22;32137;48.728;9.142;2023-11-21T14:36:27;10.40;99.90
46438;DHT22;32137;48.728;9.142;2023-11-21T14:38:52;10.90;99.90
46438;DHT22;32137;48.728;9.142;2023-11-21T14:41:18;10.90;99.90
46438;DHT22;32137;48.728;9.142;2023-11-21T14:43:44;10.80;99.90
46438;DHT22;32137;48.728;9.142;2023-11-21T14:46:11;10.90;99.90
46438;DHT22;32137;48.728;9.142;2023-11-21T14:48:39;10.70;99.90
46438;DHT22;32137;48.728;9.142;2023-11-21T14:51:11;10.80;99.90
46438;DHT22;32137;48.728;9.142;2023-11-21T14:53:55;10.50;99.90
46438;DHT22;32137;48.728;9.142;2023-11-21T14:56:25;10.40;99.90
46438;DHT22;32137;48.728;9.142;2023-11-21T14:58:58;10.50;99.90
46438;DHT22;32137;48.728;9.142;2023-11-21T15:01:30;10.90;99.90
46438;DHT22;32137;48.728;9.142;2023-11-21T15:04:20;10.90;99.90
46438;DHT22;32137;48.728;9.142;2023-11-21T15:07:02;10.80;99.90
46438;DHT22;32137;48.728;9.142;2023-11-21T15:09:28;10.60;99.90
46438;DHT22;32137;48.728;9.142;2023-11-21T15:11:56;11.00;99.90
46438;DHT22;32137;48.728;9.142;2023-11-21T15:14:28;10.50;99.90
46438;DHT22;32137;48.728;9.142;2023-11-21T15:16:57;10.60;99.90
46438;DHT22;32137;48.728;9.142;2023-11-21T15:19:25;10.70;99.90
46438;DHT22;32137;48.728;9.142;2023-11-21T15:21:51;10.90;99.90
46438;DHT22;32137;48.728;9.142;2023-11-21T15:24:17;10.90;99.90
46438;DHT22;32137;48.728;9.142;2023-11-21T15:26:42;10.80;99.90
46438;DHT22;32137;48.728;9.142;2023-11-21T15:29:07;10.80;99.90
46438;DHT22;32137;48.728;9.142;2023-11-21T15:31:33;11.00;99.90
46438;DHT22;32137;48.728;9.142;2023-11-21T15:33:58;11.00;99.90
46438;DHT22;32137;48.728;9.142;2023-11-21T15:36:25;10.80;99.90
46438;DHT22;32137;48.728;9.142;2023-11-21T15:38:52;10.70;99.90
46438;DHT22;32137;48.728;9.142;2023-11-21T15:41:18;10.70;99.90
46438;DHT22;32137;48.728;9.142;2023-11-21T15:43:43;10.80;99.90
46438;DHT22;32137;48.728;9.142;2023-11-21T15:46:08;10.70;99.90
46438;DHT22;32137;48.728;9.142;2023-11-21T15:48:35;10.70;99.90
46438;DHT22;32137;48.728;9.142;2023-11-21T15:51:01;11.10;99.90
46438;DHT22;32137;48.728;9.142;2023-11-21T15:53:28;11.00;99.90